GOGG

Details ICAO GOGG (ZIG)
Name ZIGUINCHOR
Region Senegal
Timezone Africa/Dakar (UTC+0.0)
Plans Departing 5
Arriving 3
Stats Elevation 75 ft / 23 m (AMSL)
Location 12.555615° -16.281783°
Runways 1
Magnetic Variation 7.341° W
Sunrise 2017-12-17 07:20:59 UTC / 2017-12-17 07:20:59 Local
Sunset 2017-12-17 18:44:17 UTC / 2017-12-17 18:44:17 Local
Advertisement - Login to hide

Runways

ID Width Length Bearing (true) Bearing (mag) Surface Threshold Offset Overrun Length
10 98 ft / 30 m 5,065 ft / 1,544 m 87.88° 95.22° Asphalt 0 ft / 0 m 197 ft / 60 m
28 98 ft / 30 m 5,065 ft / 1,544 m 267.88° 275.22° Asphalt 0 ft / 0 m 0 ft / 0 m

Map

Weather


0- 5 10 15 20 25 30 35+ Temperature / ° C

Clouds and Precipitation
Forecast for 2017-12-17 06:00 UTC. Updated an hour ago

Ground ~20,000 ft ~40,000 ft Winds

METAR

GOGG 170400Z 34006KT 8000 NSC 22/09 Q1014

TAF

Not found

Frequencies

Tower 118.70 MHz TWR
Warning: Do not use this data for real-world aviation or navigation. No guarantee of current accuracy is given.